Аэропорт: Шымкент. Шымкент

ICAO: UAII

METAR:
2020-10-19 22:30:00
UAII 192230Z 14004MPS CAVOK 10/M05 Q1013 R28/0///70 NOSIG RMK QFE723/0964
METAR:
2020-10-19 17:00:00
TAF UAII 191700Z 1918/2018 03003G08MPS 6000 BKN100 TX26/2010Z TN07/2001Z TEMPO 1918/2003 12004MPS 3100 FU TEMPO 2003/2012 20005G10MPS